createdAt,value
2022-10-09T00:00:34.043Z,7.72
2022-10-09T00:03:01.739Z,8.05
2022-10-09T00:05:29.368Z,7.75
2022-10-09T00:07:56.737Z,7.45
2022-10-09T00:10:24.471Z,7.60
2022-10-09T00:12:51.915Z,7.85
2022-10-09T00:15:19.489Z,8.32
2022-10-09T00:17:46.635Z,7.03
2022-10-09T00:20:13.798Z,7.72
2022-10-09T00:22:41.384Z,6.57
2022-10-09T00:25:08.907Z,8.05
2022-10-09T00:27:36.206Z,7.20
2022-10-09T00:30:06.667Z,8.10
2022-10-09T00:32:34.387Z,6.90
2022-10-09T00:35:01.555Z,7.13
2022-10-09T00:37:29.727Z,7.00
2022-10-09T00:39:57.293Z,7.20
2022-10-09T00:42:27.042Z,6.63
2022-10-09T00:44:58.238Z,6.63
2022-10-09T00:47:29.383Z,7.00
2022-10-09T00:50:17.216Z,7.32
2022-10-09T00:52:45.276Z,7.35
2022-10-09T00:55:15.739Z,6.78
2022-10-09T00:57:44.169Z,8.48
2022-10-09T01:00:12.841Z,7.38
2022-10-09T01:02:40.141Z,7.20
2022-10-09T01:05:09.095Z,7.22
2022-10-09T01:07:40.522Z,8.18
2022-10-09T01:12:40.877Z,9.10
2022-10-09T01:15:18.773Z,8.07
2022-10-09T01:17:58.643Z,7.93
2022-10-09T01:20:32.138Z,6.70
2022-10-09T01:23:18.586Z,6.05
2022-10-09T01:25:51.754Z,6.47
2022-10-09T01:28:20.685Z,7.63
2022-10-09T01:30:49.182Z,7.07
2022-10-09T01:33:17.816Z,7.18
2022-10-09T01:35:46.424Z,6.32
2022-10-09T01:38:14.259Z,6.75
2022-10-09T01:40:41.559Z,7.35
2022-10-09T01:43:08.918Z,6.43
2022-10-09T01:45:42.490Z,7.53
2022-10-09T01:48:16.412Z,6.97
2022-10-09T01:50:48.925Z,6.47
2022-10-09T01:53:19.356Z,6.50
2022-10-09T01:55:50.721Z,7.32
2022-10-09T01:58:38.926Z,6.47
2022-10-09T02:01:06.548Z,6.57
2022-10-09T02:03:34.681Z,6.70
2022-10-09T02:06:03.138Z,6.65
2022-10-09T02:08:31.989Z,6.75
2022-10-09T02:11:03.712Z,6.68
2022-10-09T02:13:32.977Z,6.97
2022-10-09T02:16:07.680Z,7.35
2022-10-09T02:18:38.231Z,5.85
2022-10-09T02:21:10.713Z,6.70
2022-10-09T02:23:38.715Z,6.18
2022-10-09T02:26:07.873Z,6.50
2022-10-09T02:28:35.185Z,6.88
2022-10-09T02:31:06.619Z,7.50
2022-10-09T02:36:01.937Z,6.50
2022-10-09T02:38:29.137Z,7.32
2022-10-09T02:41:02.732Z,6.03
2022-10-09T02:43:30.322Z,6.18
2022-10-09T02:45:57.474Z,6.28
2022-10-09T02:48:26.711Z,6.75
2022-10-09T02:50:53.929Z,7.03
2022-10-09T02:53:21.169Z,6.75
2022-10-09T02:55:48.701Z,7.45
2022-10-09T02:58:15.961Z,6.95
2022-10-09T03:00:43.109Z,6.05
2022-10-09T03:03:10.455Z,7.53
2022-10-09T03:05:37.612Z,6.32
2022-10-09T03:08:04.747Z,5.78
2022-10-09T03:10:32.713Z,6.18
2022-10-09T03:12:59.904Z,6.38
2022-10-09T03:15:28.182Z,5.55
2022-10-09T03:17:55.289Z,5.57
2022-10-09T03:20:22.522Z,5.53
2022-10-09T03:22:49.895Z,6.55
2022-10-09T03:25:17.301Z,7.35
2022-10-09T03:27:44.555Z,5.55
2022-10-09T03:30:11.827Z,5.80
2022-10-09T03:32:39.045Z,5.28
2022-10-09T03:35:06.508Z,6.20
2022-10-09T03:37:33.654Z,6.03
2022-10-09T03:40:00.837Z,5.47
2022-10-09T03:42:27.988Z,6.53
2022-10-09T03:44:55.147Z,6.05
2022-10-09T03:47:28.508Z,5.65
2022-10-09T03:49:55.738Z,6.15
2022-10-09T03:52:22.906Z,6.28
2022-10-09T03:54:50.128Z,7.00
2022-10-09T03:57:17.248Z,8.40
2022-10-09T03:59:44.554Z,5.60
2022-10-09T04:02:11.856Z,6.40
2022-10-09T04:04:39.081Z,6.57
2022-10-09T04:07:06.247Z,6.10
2022-10-09T04:09:33.418Z,7.13
2022-10-09T04:12:00.624Z,6.57
2022-10-09T04:14:27.782Z,6.32
2022-10-09T04:16:54.932Z,6.18
2022-10-09T04:19:22.153Z,6.63
2022-10-09T04:21:53.366Z,7.07
2022-10-09T04:24:20.518Z,7.00
2022-10-09T04:26:47.737Z,6.50
2022-10-09T04:29:14.914Z,6.50
2022-10-09T04:31:42.269Z,6.43
2022-10-09T04:34:09.599Z,6.60
2022-10-09T04:36:36.760Z,6.63
2022-10-09T04:39:04.198Z,7.13
2022-10-09T04:41:41.011Z,6.25
2022-10-09T04:44:08.223Z,6.43
2022-10-09T04:46:35.386Z,6.05
2022-10-09T04:49:02.588Z,6.80
2022-10-09T04:51:29.699Z,6.25
2022-10-09T04:54:00.476Z,6.25
2022-10-09T04:56:30.078Z,6.18
2022-10-09T04:58:57.354Z,8.25
2022-10-09T05:01:25.753Z,5.63
2022-10-09T05:03:53.473Z,5.63
2022-10-09T05:06:21.688Z,5.93
2022-10-09T05:08:49.147Z,5.20
2022-10-09T05:11:17.676Z,5.68
2022-10-09T05:13:46.985Z,5.60
2022-10-09T05:16:21.445Z,8.00
2022-10-09T05:18:49.897Z,6.40
2022-10-09T05:21:17.608Z,5.97
2022-10-09T05:23:44.958Z,5.55
2022-10-09T05:26:13.417Z,5.97
2022-10-09T05:28:40.842Z,6.13
2022-10-09T05:31:08.724Z,6.38
2022-10-09T05:33:36.172Z,5.85
2022-10-09T05:36:05.540Z,5.85
2022-10-09T05:38:34.584Z,5.20
2022-10-09T05:41:04.040Z,5.85
2022-10-09T05:43:34.392Z,5.75
2022-10-09T05:46:10.801Z,5.07
2022-10-09T05:48:39.180Z,5.70
2022-10-09T05:51:08.598Z,5.93
2022-10-09T05:53:41.089Z,5.95
2022-10-09T05:56:11.376Z,5.32
2022-10-09T05:58:38.571Z,5.47
2022-10-09T06:01:05.937Z,6.38
2022-10-09T06:03:34.631Z,5.03
2022-10-09T06:06:05.705Z,6.88
2022-10-09T06:08:36.331Z,6.03
2022-10-09T06:11:14.646Z,6.37
2022-10-09T06:13:43.203Z,6.07
2022-10-09T06:16:17.701Z,6.25
2022-10-09T06:18:49.845Z,6.63
2022-10-09T06:21:17.604Z,6.68
2022-10-09T06:23:45.145Z,7.03
2022-10-09T06:26:13.505Z,5.57
2022-10-09T06:28:41.050Z,7.15
2022-10-09T06:31:17.574Z,6.15
2022-10-09T06:33:45.435Z,7.50
2022-10-09T06:36:21.288Z,5.80
2022-10-09T06:38:48.820Z,5.65
2022-10-09T06:41:17.562Z,5.22
2022-10-09T06:43:48.619Z,7.47
2022-10-09T06:46:18.005Z,6.63
2022-10-09T06:48:45.308Z,4.95
2022-10-09T06:51:16.535Z,5.30
2022-10-09T06:53:44.795Z,5.68
2022-10-09T06:56:15.083Z,5.30
2022-10-09T06:58:42.521Z,4.85
2022-10-09T07:01:11.543Z,7.60
2022-10-09T07:03:40.542Z,6.13
2022-10-09T07:06:18.482Z,4.90
2022-10-09T07:08:46.789Z,5.90
2022-10-09T07:11:21.661Z,6.25
2022-10-09T07:13:54.069Z,4.32
2022-10-09T07:16:22.655Z,4.22
2022-10-09T07:18:50.528Z,4.35
2022-10-09T07:21:18.487Z,4.32
2022-10-09T07:23:46.700Z,3.92
2022-10-09T07:26:18.670Z,6.15
2022-10-09T07:28:46.868Z,4.53
2022-10-09T07:31:15.106Z,4.15
2022-10-09T07:33:42.566Z,4.15
2022-10-09T07:36:11.183Z,4.20
2022-10-09T07:38:39.224Z,4.22
2022-10-09T07:41:10.573Z,4.35
2022-10-09T07:43:41.950Z,3.95
2022-10-09T07:46:12.943Z,4.07
2022-10-09T07:48:40.865Z,3.42
2022-10-09T07:51:12.753Z,4.25
2022-10-09T07:53:40.733Z,5.07
2022-10-09T07:56:08.925Z,4.45
2022-10-09T07:58:36.152Z,3.13
2022-10-09T08:01:08.203Z,3.58
2022-10-09T08:03:38.988Z,2.83
2022-10-09T08:06:06.689Z,3.92
2022-10-09T08:08:34.406Z,3.45
2022-10-09T08:11:08.618Z,5.13
2022-10-09T08:13:38.288Z,5.63
2022-10-09T08:16:10.500Z,3.60
2022-10-09T08:18:37.882Z,13.15
2022-10-09T08:21:20.437Z,4.75
2022-10-09T08:23:47.696Z,4.20
2022-10-09T08:26:17.216Z,3.75
2022-10-09T08:28:44.876Z,3.58
2022-10-09T08:31:17.214Z,3.40
2022-10-09T08:33:45.171Z,3.20
2022-10-09T08:36:17.350Z,3.55
2022-10-09T08:38:50.780Z,3.22
2022-10-09T08:41:33.400Z,3.17
2022-10-09T08:44:24.112Z,2.92
2022-10-09T08:46:58.204Z,3.03
2022-10-09T08:49:28.851Z,2.90
2022-10-09T08:52:00.787Z,3.22
2022-10-09T08:54:31.601Z,3.65
2022-10-09T08:57:03.273Z,3.55
2022-10-09T08:59:31.165Z,3.72
2022-10-09T09:02:15.645Z,2.80
2022-10-09T09:04:54.936Z,3.17
2022-10-09T09:07:22.724Z,2.95
2022-10-09T09:09:53.729Z,3.28
2022-10-09T09:12:23.072Z,2.53
2022-10-09T09:15:00.052Z,3.22
2022-10-09T09:18:39.630Z,2.97
2022-10-09T09:20:58.872Z,2.72
2022-10-09T09:23:38.870Z,2.67
2022-10-09T09:26:11.939Z,4.13
2022-10-09T09:28:40.404Z,3.45
2022-10-09T09:31:14.300Z,2.90
2022-10-09T09:33:57.132Z,2.83
2022-10-09T09:36:41.014Z,2.50
2022-10-09T09:42:08.463Z,2.57
2022-10-09T09:44:37.622Z,4.15
2022-10-09T09:47:05.525Z,5.15
2022-10-09T09:49:33.382Z,2.30
2022-10-09T09:52:03.991Z,2.50
2022-10-09T09:54:32.178Z,2.03
2022-10-09T09:57:14.902Z,2.42
2022-10-09T09:59:46.039Z,2.63
2022-10-09T10:02:15.629Z,2.22
2022-10-09T10:05:09.821Z,2.15
2022-10-09T10:07:38.775Z,4.43
2022-10-09T10:10:24.003Z,2.28
2022-10-09T10:12:52.692Z,2.40
2022-10-09T10:15:28.191Z,3.05
2022-10-09T10:18:24.628Z,1.95
2022-10-09T10:20:54.897Z,2.80
2022-10-09T10:23:24.188Z,2.38
2022-10-09T10:25:53.504Z,2.25
2022-10-09T10:28:24.097Z,2.95
2022-10-09T10:30:51.844Z,2.03
2022-10-09T10:33:30.241Z,2.38
2022-10-09T10:35:58.914Z,2.65
2022-10-09T10:38:26.622Z,3.08
2022-10-09T10:40:59.988Z,2.30
2022-10-09T10:43:33.725Z,2.08
2022-10-09T10:46:08.245Z,2.20
2022-10-09T10:48:42.697Z,2.03
2022-10-09T10:51:13.071Z,3.10
2022-10-09T10:53:59.749Z,6.00
2022-10-09T10:56:39.710Z,2.42
2022-10-09T10:59:28.650Z,1.65
2022-10-09T11:01:58.864Z,1.80
2022-10-09T11:04:37.946Z,2.03
2022-10-09T11:07:17.466Z,3.05
2022-10-09T11:09:56.624Z,2.08
2022-10-09T11:12:47.348Z,1.60
2022-10-09T11:15:37.963Z,2.00
2022-10-09T11:18:11.901Z,1.77
2022-10-09T11:20:39.155Z,1.70
2022-10-09T11:23:09.421Z,2.00
2022-10-09T11:25:52.238Z,1.80
2022-10-09T11:28:23.088Z,1.73
2022-10-09T11:30:53.606Z,3.15
2022-10-09T11:33:39.475Z,1.90
2022-10-09T11:36:25.804Z,2.83
2022-10-09T11:38:57.309Z,3.63
2022-10-09T11:41:25.269Z,4.05
2022-10-09T11:44:01.683Z,4.15
2022-10-09T11:46:36.604Z,3.05
2022-10-09T11:49:17.848Z,2.28
2022-10-09T11:51:58.113Z,1.92
2022-10-09T11:54:27.881Z,2.00
2022-10-09T11:56:57.350Z,1.63
2022-10-09T11:59:28.833Z,2.25
2022-10-09T12:01:57.107Z,2.08
2022-10-09T12:04:53.869Z,2.00
2022-10-09T12:07:27.479Z,1.65
2022-10-09T12:09:58.477Z,2.22
2022-10-09T12:12:28.346Z,1.60
2022-10-09T12:14:56.705Z,1.75
2022-10-09T12:20:52.274Z,2.00
2022-10-09T12:40:19.839Z,2.03
2022-10-09T13:10:34.819Z,2.60
2022-10-09T13:13:02.378Z,2.60
2022-10-09T13:15:39.752Z,2.25
2022-10-09T13:18:22.631Z,2.00
2022-10-09T13:21:29.124Z,2.40
2022-10-09T13:24:08.286Z,1.70
2022-10-09T13:26:35.759Z,3.13
2022-10-09T13:29:06.586Z,2.10
2022-10-09T13:31:36.781Z,2.72
2022-10-09T13:34:12.118Z,2.63
2022-10-09T13:36:44.759Z,2.25
2022-10-09T13:39:21.079Z,1.98
2022-10-09T13:41:50.184Z,2.15
2022-10-09T13:44:17.384Z,2.40
2022-10-09T13:46:45.367Z,2.05
2022-10-09T13:49:13.249Z,2.10
2022-10-09T13:51:40.449Z,2.38
2022-10-09T13:54:08.456Z,2.10
2022-10-09T13:56:36.293Z,1.98
2022-10-09T13:59:03.516Z,2.95
2022-10-09T14:01:30.909Z,2.35
2022-10-09T14:04:00.823Z,2.10
2022-10-09T14:06:28.185Z,2.10
2022-10-09T14:08:57.624Z,2.13
2022-10-09T14:11:25.427Z,2.58
2022-10-09T14:13:52.834Z,2.50
2022-10-09T14:16:20.403Z,3.10
2022-10-09T14:18:48.234Z,2.53
2022-10-09T14:21:16.155Z,2.47
2022-10-09T14:23:43.513Z,2.95
2022-10-09T14:26:11.073Z,2.63
2022-10-09T14:28:38.807Z,2.88
2022-10-09T14:31:13.374Z,2.45
2022-10-09T14:33:41.371Z,3.00
2022-10-09T14:36:09.874Z,2.15
2022-10-09T14:38:38.426Z,2.60
2022-10-09T14:41:06.031Z,3.05
2022-10-09T14:43:34.013Z,2.50
2022-10-09T14:46:04.303Z,2.47
2022-10-09T14:48:34.480Z,2.70
2022-10-09T14:51:09.586Z,2.60
2022-10-09T14:53:37.320Z,2.50
2022-10-09T14:56:05.922Z,2.92
2022-10-09T14:58:34.173Z,2.83
2022-10-09T15:01:02.377Z,2.70
2022-10-09T15:03:33.941Z,2.45
2022-10-09T15:06:02.199Z,2.58
2022-10-09T15:08:40.032Z,2.97
2022-10-09T15:11:07.509Z,4.30
2022-10-09T15:13:35.381Z,3.72
2022-10-09T15:16:04.649Z,3.90
2022-10-09T15:18:38.725Z,3.60
2022-10-09T15:21:06.713Z,4.57
2022-10-09T15:23:34.365Z,4.85
2022-10-09T15:26:01.518Z,3.55
2022-10-09T15:28:28.901Z,2.78
2022-10-09T15:30:58.698Z,3.00
2022-10-09T15:33:25.953Z,3.08
2022-10-09T15:35:55.417Z,2.70
2022-10-09T15:38:23.592Z,3.50
2022-10-09T15:40:58.452Z,3.15
2022-10-09T15:43:28.245Z,2.92
2022-10-09T15:46:03.419Z,3.00
2022-10-09T15:48:30.779Z,3.22
2022-10-09T15:51:00.625Z,3.30
2022-10-09T15:53:27.910Z,4.47
2022-10-09T15:55:55.262Z,8.05
2022-10-09T15:58:22.989Z,5.80
2022-10-09T16:00:50.684Z,4.10
2022-10-09T16:03:19.873Z,3.75
2022-10-09T16:05:51.612Z,3.00
2022-10-09T16:08:19.310Z,3.17
2022-10-09T16:10:50.353Z,4.60
2022-10-09T16:15:47.224Z,20.67
2022-10-09T16:18:15.691Z,15.38
2022-10-09T16:20:43.405Z,5.78
2022-10-09T16:23:10.710Z,4.30
2022-10-09T16:25:39.184Z,6.75
2022-10-09T16:28:07.560Z,103.95
2022-10-09T16:30:39.510Z,98.65
2022-10-09T16:33:12.611Z,7.90
2022-10-09T16:35:41.020Z,3.53
2022-10-09T16:38:09.304Z,3.08
2022-10-09T16:41:01.269Z,3.53
2022-10-09T16:43:29.385Z,14.88
2022-10-09T16:45:57.108Z,4.10
2022-10-09T16:48:24.865Z,7.38
2022-10-09T16:50:52.473Z,182.45
2022-10-09T16:53:20.083Z,87.32
2022-10-09T16:55:50.867Z,41.67
2022-10-09T16:58:18.440Z,47.95
2022-10-09T17:00:46.158Z,66.03
2022-10-09T17:03:14.124Z,64.20
2022-10-09T17:05:42.027Z,80.20
2022-10-09T17:08:09.755Z,31.52
2022-10-09T17:10:41.692Z,104.65
2022-10-09T17:13:09.355Z,41.45
2022-10-09T17:15:36.618Z,32.47
2022-10-09T17:18:04.480Z,33.97
2022-10-09T17:20:32.443Z,39.45
2022-10-09T17:23:00.642Z,36.33
2022-10-09T17:25:29.229Z,37.38
2022-10-09T17:27:57.017Z,32.60
2022-10-09T17:30:26.987Z,35.45
2022-10-09T17:32:54.756Z,36.78
2022-10-09T17:35:22.572Z,34.45
2022-10-09T17:37:50.258Z,34.63
2022-10-09T17:40:17.859Z,28.17
2022-10-09T17:42:45.607Z,24.13
2022-10-09T17:45:13.356Z,19.17
2022-10-09T17:47:44.130Z,18.20
2022-10-09T17:50:12.811Z,16.15
2022-10-09T17:52:40.833Z,13.77
2022-10-09T17:55:08.937Z,10.18
2022-10-09T17:57:36.865Z,9.38
2022-10-09T18:00:12.275Z,8.52
2022-10-09T18:02:42.436Z,9.32
2022-10-09T18:05:10.253Z,7.30
2022-10-09T18:07:43.831Z,9.88
2022-10-09T18:10:11.729Z,15.98
2022-10-09T18:12:39.484Z,18.70
2022-10-09T18:15:07.590Z,18.85
2022-10-09T18:17:35.299Z,24.30
2022-10-09T18:20:03.134Z,24.83
2022-10-09T18:22:30.342Z,20.17
2022-10-09T18:24:58.401Z,12.18
2022-10-09T18:27:26.795Z,12.25
2022-10-09T18:29:54.886Z,14.82
2022-10-09T18:32:25.742Z,12.18
2022-10-09T18:34:56.550Z,13.15
2022-10-09T18:37:24.058Z,11.63
2022-10-09T18:39:55.436Z,9.85
2022-10-09T18:42:26.030Z,8.90
2022-10-09T18:44:56.208Z,12.57
2022-10-09T18:47:28.658Z,12.95
2022-10-09T18:49:57.411Z,13.60
2022-10-09T18:52:28.040Z,15.35
2022-10-09T18:54:56.199Z,14.60
2022-10-09T18:57:26.649Z,13.40
2022-10-09T19:00:06.175Z,13.57
2022-10-09T19:02:33.419Z,13.48
2022-10-09T19:05:06.440Z,15.18
2022-10-09T19:07:33.663Z,15.23
2022-10-09T19:10:00.875Z,13.52
2022-10-09T19:12:28.702Z,14.50
2022-10-09T19:14:56.483Z,10.00
2022-10-09T19:17:24.659Z,11.27
2022-10-09T19:19:52.334Z,11.40
2022-10-09T19:22:24.116Z,9.40
2022-10-09T19:24:51.922Z,12.60
2022-10-09T19:27:21.621Z,15.27
2022-10-09T19:29:52.578Z,14.68
2022-10-09T19:32:23.596Z,15.25
2022-10-09T19:34:51.155Z,14.38
2022-10-09T19:37:19.030Z,14.40
2022-10-09T19:39:53.435Z,13.95
2022-10-09T19:42:21.284Z,13.07
2022-10-09T19:44:50.397Z,11.88
2022-10-09T19:47:21.381Z,11.35
2022-10-09T19:49:48.633Z,10.57
2022-10-09T19:52:18.316Z,13.55
2022-10-09T19:54:45.515Z,21.42
2022-10-09T19:57:12.701Z,12.98
2022-10-09T19:59:42.722Z,16.48
2022-10-09T20:02:15.782Z,19.90
2022-10-09T20:04:44.445Z,20.25
2022-10-09T20:07:14.141Z,17.30
2022-10-09T20:12:35.412Z,29.92
2022-10-09T20:15:06.543Z,16.02
2022-10-09T20:20:29.144Z,18.48
2022-10-09T20:23:10.659Z,12.35
2022-10-09T20:25:38.902Z,10.50
2022-10-09T20:28:14.616Z,12.70
2022-10-09T20:31:06.590Z,9.85
2022-10-09T20:36:29.162Z,10.27
2022-10-09T20:39:00.176Z,11.02
2022-10-09T20:41:36.086Z,9.50
2022-10-09T20:44:08.742Z,9.98
2022-10-09T20:46:39.399Z,9.77
2022-10-09T20:49:09.971Z,9.30
2022-10-09T20:51:48.097Z,10.63
2022-10-09T20:54:27.309Z,10.77
2022-10-09T20:56:57.074Z,12.05
2022-10-09T20:59:32.163Z,10.60
2022-10-09T21:02:00.014Z,9.45
2022-10-09T21:04:35.611Z,10.55
2022-10-09T21:07:06.512Z,9.98
2022-10-09T21:09:36.577Z,11.23
2022-10-09T21:12:07.130Z,10.77
2022-10-09T21:14:34.371Z,14.50
2022-10-09T21:17:04.305Z,13.43
2022-10-09T21:19:32.232Z,14.02
2022-10-09T21:22:02.023Z,10.68
2022-10-09T21:24:30.532Z,15.30
2022-10-09T21:26:57.815Z,12.05
2022-10-09T21:29:27.047Z,12.10
2022-10-09T21:31:54.791Z,13.13
2022-10-09T21:34:22.260Z,11.05
2022-10-09T21:37:16.399Z,11.05
2022-10-09T21:39:38.056Z,11.85
2022-10-09T21:42:06.025Z,11.18
2022-10-09T21:44:33.510Z,12.00
2022-10-09T21:47:00.768Z,12.52
2022-10-09T21:49:28.785Z,10.25
2022-10-09T21:51:56.259Z,10.65
2022-10-09T21:54:24.233Z,9.40
2022-10-09T21:56:52.528Z,10.52
2022-10-09T21:59:19.860Z,9.30
2022-10-09T22:01:49.922Z,7.88
2022-10-09T22:04:20.074Z,8.63
2022-10-09T22:06:50.395Z,8.70
2022-10-09T22:09:18.336Z,9.68
2022-10-09T22:11:46.151Z,7.85
2022-10-09T22:14:14.224Z,8.68
2022-10-09T22:16:41.471Z,9.27
2022-10-09T22:19:10.478Z,8.02
2022-10-09T22:21:40.720Z,9.40
2022-10-09T22:24:08.245Z,8.57
2022-10-09T22:26:35.994Z,8.68
2022-10-09T22:29:03.535Z,8.85
2022-10-09T22:31:30.763Z,9.43
2022-10-09T22:34:06.290Z,10.95
2022-10-09T22:36:33.921Z,9.45
2022-10-09T22:39:02.247Z,9.60
2022-10-09T22:41:31.075Z,12.18
2022-10-09T22:43:59.194Z,14.70
2022-10-09T22:46:28.817Z,15.32
2022-10-09T22:48:59.257Z,13.57
2022-10-09T22:51:28.336Z,14.75
2022-10-09T22:53:57.090Z,13.52
2022-10-09T22:56:29.874Z,13.93
2022-10-09T22:58:57.730Z,15.75
2022-10-09T23:01:30.888Z,14.93
2022-10-09T23:03:58.903Z,13.90
2022-10-09T23:06:27.633Z,13.18
2022-10-09T23:08:54.905Z,15.07
2022-10-09T23:11:23.006Z,14.65
2022-10-09T23:13:54.660Z,13.67
2022-10-09T23:18:49.231Z,13.65
2022-10-09T23:21:18.590Z,14.90
2022-10-09T23:23:46.643Z,13.77
2022-10-09T23:26:16.342Z,15.63
2022-10-09T23:28:44.903Z,14.30
2022-10-09T23:31:14.146Z,15.40
2022-10-09T23:33:43.187Z,14.60
2022-10-09T23:36:12.695Z,15.93
2022-10-09T23:38:40.315Z,14.13
2022-10-09T23:41:15.749Z,13.47
2022-10-09T23:43:44.133Z,13.00
2022-10-09T23:46:13.038Z,11.23
2022-10-09T23:48:40.516Z,11.30
2022-10-09T23:51:08.171Z,12.20
2022-10-09T23:53:36.433Z,12.50
2022-10-09T23:56:16.151Z,10.15
2022-10-09T23:58:43.591Z,9.55
